createdAt,value
2023-03-31T00:00:57.888Z,2.32
2023-03-31T00:03:24.633Z,2.21
2023-03-31T00:05:51.122Z,2.43
2023-03-31T00:08:17.483Z,2.11
2023-03-31T00:10:43.851Z,2.27
2023-03-31T00:13:10.267Z,2.19
2023-03-31T00:15:36.638Z,2.18
2023-03-31T00:18:03.024Z,2.10
2023-03-31T00:20:29.426Z,2.12
2023-03-31T00:22:55.794Z,2.11
2023-03-31T00:25:22.107Z,2.11
2023-03-31T00:27:48.494Z,2.31
2023-03-31T00:30:14.821Z,2.20
2023-03-31T00:32:41.320Z,2.05
2023-03-31T00:35:07.733Z,2.16
2023-03-31T00:37:34.296Z,2.31
2023-03-31T00:40:00.681Z,2.33
2023-03-31T00:42:27.003Z,2.24
2023-03-31T00:44:53.364Z,2.05
2023-03-31T00:47:19.976Z,2.33
2023-03-31T00:49:46.348Z,2.39
2023-03-31T00:52:12.670Z,2.23
2023-03-31T00:54:38.999Z,2.01
2023-03-31T00:57:05.365Z,2.28
2023-03-31T00:59:31.734Z,2.03
2023-03-31T01:01:58.087Z,2.16
2023-03-31T01:04:24.422Z,2.10
2023-03-31T01:06:50.731Z,1.79
2023-03-31T01:09:17.150Z,2.12
2023-03-31T01:11:43.545Z,2.15
2023-03-31T01:14:09.952Z,1.95
2023-03-31T01:16:36.371Z,1.79
2023-03-31T01:19:02.703Z,1.95
2023-03-31T01:21:29.009Z,2.01
2023-03-31T01:23:55.393Z,2.07
2023-03-31T01:26:21.736Z,1.96
2023-03-31T01:28:48.153Z,1.82
2023-03-31T01:31:14.560Z,1.99
2023-03-31T01:33:41.038Z,1.79
2023-03-31T01:36:07.753Z,1.74
2023-03-31T01:38:34.438Z,1.72
2023-03-31T01:41:00.759Z,2.02
2023-03-31T01:43:27.157Z,1.72
2023-03-31T01:45:53.551Z,1.84
2023-03-31T01:48:20.034Z,1.80
2023-03-31T01:50:46.406Z,1.70
2023-03-31T01:53:12.803Z,2.05
2023-03-31T01:55:39.174Z,1.72
2023-03-31T01:58:05.496Z,1.67
2023-03-31T02:00:31.853Z,1.82
2023-03-31T02:02:58.476Z,1.90
2023-03-31T02:05:24.912Z,1.74
2023-03-31T02:07:51.257Z,1.86
2023-03-31T02:10:17.593Z,1.82
2023-03-31T02:12:43.976Z,1.72
2023-03-31T02:15:10.301Z,1.80
2023-03-31T02:17:36.713Z,1.91
2023-03-31T02:20:03.126Z,1.96
2023-03-31T02:22:29.534Z,1.90
2023-03-31T02:24:56.064Z,1.77
2023-03-31T02:27:22.448Z,1.66
2023-03-31T02:29:48.838Z,1.92
2023-03-31T02:32:15.214Z,1.88
2023-03-31T02:34:41.595Z,1.78
2023-03-31T02:37:07.934Z,1.70
2023-03-31T02:39:34.298Z,1.81
2023-03-31T02:42:00.644Z,1.58
2023-03-31T02:44:27.009Z,1.88
2023-03-31T02:46:53.438Z,1.79
2023-03-31T02:49:19.809Z,1.59
2023-03-31T02:51:46.149Z,1.63
2023-03-31T02:54:12.502Z,1.70
2023-03-31T02:56:38.864Z,1.84
2023-03-31T02:59:05.436Z,1.79
2023-03-31T03:01:31.851Z,1.77
2023-03-31T03:03:58.252Z,1.69
2023-03-31T03:06:24.639Z,1.79
2023-03-31T03:08:50.966Z,1.89
2023-03-31T03:11:17.348Z,1.80
2023-03-31T03:13:43.712Z,1.68
2023-03-31T03:16:10.108Z,1.97
2023-03-31T03:18:36.449Z,1.81
2023-03-31T03:21:02.759Z,1.58
2023-03-31T03:23:29.145Z,1.82
2023-03-31T03:25:55.482Z,1.78
2023-03-31T03:28:21.861Z,1.88
2023-03-31T03:30:48.211Z,1.76
2023-03-31T03:33:15.886Z,2.12
2023-03-31T03:35:42.342Z,1.97
2023-03-31T03:38:08.681Z,1.96
2023-03-31T03:40:35.000Z,1.92
2023-03-31T03:43:01.385Z,2.06
2023-03-31T03:45:27.828Z,2.13
2023-03-31T03:47:54.449Z,2.07
2023-03-31T03:50:20.862Z,1.97
2023-03-31T03:52:47.190Z,2.03
2023-03-31T03:55:13.493Z,2.04
2023-03-31T03:57:39.887Z,2.19
2023-03-31T04:00:06.415Z,2.07
2023-03-31T04:02:32.994Z,1.94
2023-03-31T04:04:59.424Z,2.05
2023-03-31T04:07:25.818Z,2.35
2023-03-31T04:09:52.421Z,2.16
2023-03-31T04:12:18.797Z,2.14
2023-03-31T04:14:45.303Z,2.17
2023-03-31T04:17:11.698Z,2.11
2023-03-31T04:19:38.065Z,2.09
2023-03-31T04:22:04.431Z,2.05
2023-03-31T04:24:30.957Z,2.38
2023-03-31T04:26:57.366Z,2.27
2023-03-31T04:29:23.761Z,2.45
2023-03-31T04:31:50.143Z,2.42
2023-03-31T04:34:16.767Z,2.25
2023-03-31T04:36:43.285Z,2.36
2023-03-31T04:39:09.613Z,2.07
2023-03-31T04:41:35.922Z,2.41
2023-03-31T04:44:02.301Z,2.23
2023-03-31T04:46:28.806Z,2.59
2023-03-31T04:48:55.328Z,2.42
2023-03-31T04:51:21.654Z,2.47
2023-03-31T04:53:47.953Z,2.23
2023-03-31T04:56:14.400Z,2.54
2023-03-31T04:58:40.767Z,2.48
2023-03-31T05:01:07.338Z,2.65
2023-03-31T05:03:33.939Z,2.56
2023-03-31T05:06:00.467Z,2.71
2023-03-31T05:08:26.837Z,2.53
2023-03-31T05:10:53.193Z,2.57
2023-03-31T05:13:19.525Z,2.66
2023-03-31T05:15:45.860Z,2.76
2023-03-31T05:18:12.239Z,2.92
2023-03-31T05:20:38.817Z,2.87
2023-03-31T05:23:05.260Z,3.08
2023-03-31T05:25:31.618Z,2.77
2023-03-31T05:27:57.985Z,3.10
2023-03-31T05:30:24.307Z,3.17
2023-03-31T05:32:50.664Z,3.31
2023-03-31T05:35:17.017Z,3.19
2023-03-31T05:37:43.365Z,3.12
2023-03-31T05:40:09.757Z,3.04
2023-03-31T05:42:36.134Z,3.60
2023-03-31T05:45:02.527Z,3.39
2023-03-31T05:47:28.912Z,3.33
2023-03-31T05:49:55.236Z,3.23
2023-03-31T05:52:21.711Z,3.59
2023-03-31T05:54:48.291Z,3.99
2023-03-31T05:57:14.694Z,3.52
2023-03-31T05:59:41.092Z,3.74
2023-03-31T06:02:07.435Z,3.52
2023-03-31T06:04:33.833Z,3.63
2023-03-31T06:07:00.207Z,3.50
2023-03-31T06:09:26.699Z,3.88
2023-03-31T06:11:53.096Z,3.80
2023-03-31T06:14:19.462Z,3.68
2023-03-31T06:16:45.821Z,4.36
2023-03-31T06:19:12.131Z,4.30
2023-03-31T06:21:38.715Z,4.05
2023-03-31T06:24:05.044Z,3.86
2023-03-31T06:26:31.402Z,3.93
2023-03-31T06:28:57.748Z,3.91
2023-03-31T06:31:25.242Z,4.03
2023-03-31T06:33:51.606Z,4.03
2023-03-31T06:36:18.007Z,4.40
2023-03-31T06:38:44.425Z,4.21
2023-03-31T06:41:10.800Z,3.95
2023-03-31T06:43:37.220Z,3.97
2023-03-31T06:46:03.645Z,4.08
2023-03-31T06:48:29.993Z,3.85
2023-03-31T06:50:56.326Z,4.50
2023-03-31T06:53:22.694Z,4.42
2023-03-31T06:55:49.205Z,5.17
2023-03-31T06:58:15.658Z,4.48
2023-03-31T07:00:42.086Z,4.87
2023-03-31T07:03:08.742Z,4.87
2023-03-31T07:05:35.401Z,4.85
2023-03-31T07:08:01.854Z,5.02
2023-03-31T07:10:28.243Z,5.09
2023-03-31T07:12:54.627Z,4.93
2023-03-31T07:15:21.024Z,4.94
2023-03-31T07:17:47.455Z,5.05
2023-03-31T07:20:13.815Z,4.86
2023-03-31T07:22:40.187Z,4.88
2023-03-31T07:25:06.698Z,4.24
2023-03-31T07:27:33.067Z,4.24
2023-03-31T07:29:59.440Z,4.86
2023-03-31T07:32:28.467Z,4.87
2023-03-31T07:34:55.418Z,4.46
2023-03-31T07:37:21.732Z,4.48
2023-03-31T07:39:48.058Z,4.67
2023-03-31T07:42:14.445Z,4.75
2023-03-31T07:44:40.778Z,4.15
2023-03-31T07:47:07.146Z,4.27
2023-03-31T07:49:33.505Z,4.07
2023-03-31T07:51:59.932Z,4.27
2023-03-31T07:54:26.386Z,4.03
2023-03-31T07:56:53.577Z,4.33
2023-03-31T07:59:19.935Z,4.16
2023-03-31T08:01:46.287Z,4.13
2023-03-31T08:04:12.857Z,4.50
2023-03-31T08:06:39.309Z,4.17
2023-03-31T08:09:05.638Z,4.33
2023-03-31T08:11:32.013Z,4.25
2023-03-31T08:13:58.511Z,3.98
2023-03-31T08:16:24.936Z,3.88
2023-03-31T08:18:51.284Z,4.01
2023-03-31T08:21:17.669Z,4.01
2023-03-31T08:23:44.087Z,4.13
2023-03-31T08:26:10.425Z,4.01
2023-03-31T08:28:36.808Z,4.24
2023-03-31T08:31:03.187Z,4.22
2023-03-31T08:33:29.586Z,4.09
2023-03-31T08:35:56.005Z,4.37
2023-03-31T08:38:22.423Z,4.63
2023-03-31T08:40:48.758Z,4.25
2023-03-31T08:43:15.098Z,4.68
2023-03-31T08:45:41.465Z,4.51
2023-03-31T08:48:08.053Z,4.55
2023-03-31T08:50:34.515Z,4.62
2023-03-31T08:53:00.900Z,4.83
2023-03-31T08:55:27.300Z,4.71
2023-03-31T08:57:53.696Z,4.57
2023-03-31T09:00:20.172Z,4.65
2023-03-31T09:02:46.532Z,4.65
2023-03-31T09:05:12.909Z,4.83
2023-03-31T09:07:39.271Z,4.54
2023-03-31T09:10:05.695Z,4.42
2023-03-31T09:12:32.040Z,4.75
2023-03-31T09:14:58.406Z,4.21
2023-03-31T09:17:25.050Z,3.79
2023-03-31T09:19:51.399Z,4.38
2023-03-31T09:22:17.758Z,3.94
2023-03-31T09:24:44.147Z,4.21
2023-03-31T09:27:10.478Z,3.98
2023-03-31T09:29:37.525Z,4.20
2023-03-31T09:32:03.959Z,4.31
2023-03-31T09:34:30.339Z,4.23
2023-03-31T09:36:56.729Z,4.19
2023-03-31T09:39:23.125Z,3.96
2023-03-31T09:41:49.513Z,4.13
2023-03-31T09:44:15.890Z,4.44
2023-03-31T09:46:42.249Z,3.74
2023-03-31T09:49:08.640Z,4.09
2023-03-31T09:51:34.979Z,4.14
2023-03-31T09:54:01.298Z,4.25
2023-03-31T09:56:27.688Z,3.64
2023-03-31T09:58:54.029Z,3.75
2023-03-31T10:01:20.414Z,4.10
2023-03-31T10:03:46.773Z,3.71
2023-03-31T10:06:13.184Z,3.71
2023-03-31T10:08:39.803Z,3.61
2023-03-31T10:11:06.308Z,3.61
2023-03-31T10:13:32.877Z,3.62
2023-03-31T10:15:59.220Z,3.36
2023-03-31T10:18:25.640Z,3.78
2023-03-31T10:20:52.064Z,3.65
2023-03-31T10:23:18.426Z,3.87
2023-03-31T10:25:44.866Z,4.38
2023-03-31T10:28:11.331Z,3.78
2023-03-31T10:30:37.660Z,3.65
2023-03-31T10:33:15.376Z,3.74
2023-03-31T10:35:48.580Z,3.18
2023-03-31T10:38:14.968Z,3.69
2023-03-31T10:40:41.346Z,3.49
2023-03-31T10:43:07.709Z,3.33
2023-03-31T10:45:37.902Z,3.26
2023-03-31T10:48:04.918Z,3.30
2023-03-31T10:50:31.316Z,3.42
2023-03-31T10:52:57.676Z,3.23
2023-03-31T10:55:23.995Z,3.00
2023-03-31T10:57:50.385Z,3.43
2023-03-31T11:00:17.022Z,3.35
2023-03-31T11:02:43.524Z,3.31
2023-03-31T11:05:09.919Z,3.41
2023-03-31T11:07:36.353Z,3.46
2023-03-31T11:10:02.738Z,3.38
2023-03-31T11:12:29.224Z,3.55
2023-03-31T11:14:55.568Z,3.63
2023-03-31T11:17:21.985Z,3.45
2023-03-31T11:19:48.317Z,3.15
2023-03-31T11:22:14.636Z,3.27
2023-03-31T11:24:41.005Z,3.36
2023-03-31T11:27:07.471Z,3.18
2023-03-31T11:29:33.837Z,3.64
2023-03-31T11:32:00.311Z,3.51
2023-03-31T11:34:26.665Z,3.35
2023-03-31T11:36:52.972Z,3.41
2023-03-31T11:39:19.319Z,3.10
2023-03-31T11:41:45.715Z,3.39
2023-03-31T11:44:12.101Z,3.26
2023-03-31T11:46:38.632Z,3.34
2023-03-31T11:49:05.020Z,2.99
2023-03-31T11:51:31.397Z,2.83
2023-03-31T11:53:57.794Z,3.02
2023-03-31T11:56:24.109Z,3.24
2023-03-31T11:58:50.497Z,3.25
2023-03-31T12:01:17.087Z,3.38
2023-03-31T12:03:43.578Z,2.98
2023-03-31T12:06:10.448Z,3.03
2023-03-31T12:08:37.113Z,3.13
2023-03-31T12:11:03.600Z,3.13
2023-03-31T12:13:30.156Z,2.91
2023-03-31T12:15:56.531Z,2.68
2023-03-31T12:18:22.948Z,2.90
2023-03-31T12:20:49.516Z,2.60
2023-03-31T12:23:15.873Z,2.82
2023-03-31T12:25:42.212Z,2.76
2023-03-31T12:28:08.518Z,2.54
2023-03-31T12:30:34.903Z,2.50
2023-03-31T12:33:01.279Z,2.61
2023-03-31T12:35:27.865Z,2.62
2023-03-31T12:37:54.315Z,2.40
2023-03-31T12:40:20.628Z,2.54
2023-03-31T12:42:47.340Z,2.58
2023-03-31T12:45:13.699Z,2.59
2023-03-31T12:47:40.085Z,2.39
2023-03-31T12:50:06.422Z,2.47
2023-03-31T12:52:32.758Z,2.76
2023-03-31T12:54:59.120Z,2.22
2023-03-31T12:57:25.498Z,2.17
2023-03-31T12:59:51.872Z,2.42
2023-03-31T13:02:18.237Z,2.53
2023-03-31T13:04:44.869Z,2.36
2023-03-31T13:07:25.066Z,2.40
2023-03-31T13:09:54.565Z,2.21
2023-03-31T13:12:20.949Z,2.05
2023-03-31T13:14:47.375Z,2.10
2023-03-31T13:17:14.260Z,2.07
2023-03-31T13:19:40.642Z,2.36
2023-03-31T13:22:07.270Z,2.07
2023-03-31T13:24:33.606Z,1.99
2023-03-31T13:27:00.008Z,1.88
2023-03-31T13:29:26.412Z,1.77
2023-03-31T13:31:52.862Z,1.93
2023-03-31T13:34:19.270Z,1.83
2023-03-31T13:36:45.652Z,1.96
2023-03-31T13:39:12.862Z,1.95
2023-03-31T13:41:39.442Z,1.79
2023-03-31T13:44:05.753Z,1.91
2023-03-31T13:46:32.169Z,1.93
2023-03-31T13:48:58.585Z,1.89
2023-03-31T13:51:24.962Z,1.79
2023-03-31T13:53:51.344Z,1.99
2023-03-31T13:56:17.821Z,1.84
2023-03-31T13:58:44.142Z,1.88
2023-03-31T14:01:10.528Z,1.87
2023-03-31T14:03:37.009Z,1.79
2023-03-31T14:06:03.367Z,1.86
2023-03-31T14:08:29.680Z,1.76
2023-03-31T14:10:56.040Z,1.89
2023-03-31T14:13:22.517Z,1.80
2023-03-31T14:15:48.872Z,1.84
2023-03-31T14:18:15.552Z,1.79
2023-03-31T14:20:42.316Z,1.60
2023-03-31T14:23:08.634Z,1.89
2023-03-31T14:25:35.025Z,1.81
2023-03-31T14:28:01.393Z,1.63
2023-03-31T14:30:27.714Z,1.47
2023-03-31T14:32:54.081Z,1.54
2023-03-31T14:35:20.464Z,1.63
2023-03-31T14:37:47.071Z,1.67
2023-03-31T14:40:13.462Z,1.91
2023-03-31T14:42:39.905Z,1.67
2023-03-31T14:45:06.291Z,1.55
2023-03-31T14:47:32.626Z,1.75
2023-03-31T14:49:59.050Z,1.79
2023-03-31T14:52:25.392Z,1.98
2023-03-31T14:54:51.896Z,1.81
2023-03-31T14:57:18.270Z,1.78
2023-03-31T14:59:44.848Z,1.71
2023-03-31T15:02:11.241Z,1.71
2023-03-31T15:04:42.406Z,1.58
2023-03-31T15:07:09.108Z,1.45
2023-03-31T15:09:35.504Z,1.58
2023-03-31T15:12:01.896Z,1.75
2023-03-31T15:14:28.274Z,1.67
2023-03-31T15:16:54.657Z,1.33
2023-03-31T15:19:21.057Z,1.50
2023-03-31T15:21:47.496Z,1.59
2023-03-31T15:24:13.815Z,1.74
2023-03-31T15:26:41.547Z,1.90
2023-03-31T15:29:08.364Z,1.66
2023-03-31T15:31:34.894Z,1.76
2023-03-31T15:34:01.550Z,1.62
2023-03-31T15:36:27.954Z,1.62
2023-03-31T15:38:54.445Z,1.62
2023-03-31T15:41:20.852Z,1.66
2023-03-31T15:43:47.214Z,1.64
2023-03-31T15:46:13.605Z,1.79
2023-03-31T15:48:39.989Z,1.73
2023-03-31T15:51:06.373Z,1.54
2023-03-31T15:53:32.919Z,1.62
2023-03-31T15:55:59.261Z,1.60
2023-03-31T15:58:25.585Z,1.56
2023-03-31T16:00:51.944Z,1.72
2023-03-31T16:03:18.353Z,1.74
2023-03-31T16:08:31.046Z,3.84
2023-03-31T16:10:57.423Z,6.80
2023-03-31T16:13:24.206Z,7.11
2023-03-31T16:15:50.682Z,5.57
2023-03-31T16:18:17.121Z,4.60
2023-03-31T16:20:43.492Z,4.33
2023-03-31T16:23:09.866Z,4.24
2023-03-31T16:25:36.236Z,3.91
2023-03-31T16:28:02.564Z,4.01
2023-03-31T16:30:28.901Z,3.46
2023-03-31T16:32:55.316Z,3.59
2023-03-31T16:35:21.805Z,3.37
2023-03-31T16:37:48.187Z,3.20
2023-03-31T16:40:14.585Z,3.33
2023-03-31T16:42:40.933Z,3.13
2023-03-31T16:45:14.314Z,3.13
2023-03-31T16:47:45.442Z,3.12
2023-03-31T16:50:12.389Z,2.90
2023-03-31T16:52:38.769Z,3.07
2023-03-31T16:55:05.130Z,2.71
2023-03-31T16:57:31.864Z,2.75
2023-03-31T16:59:59.027Z,2.93
2023-03-31T17:02:25.627Z,2.62
2023-03-31T17:04:54.223Z,2.66
2023-03-31T17:07:22.909Z,2.73
2023-03-31T17:09:49.282Z,2.53
2023-03-31T17:12:15.642Z,2.53
2023-03-31T17:14:41.995Z,2.57
2023-03-31T17:17:08.438Z,2.66
2023-03-31T17:19:34.838Z,2.56
2023-03-31T17:22:01.251Z,2.41
2023-03-31T17:24:27.647Z,2.79
2023-03-31T17:26:54.014Z,2.55
2023-03-31T17:29:20.357Z,2.54
2023-03-31T17:31:46.870Z,2.42
2023-03-31T17:34:13.251Z,2.40
2023-03-31T17:36:39.952Z,2.39
2023-03-31T17:39:06.376Z,2.65
2023-03-31T17:41:32.867Z,2.53
2023-03-31T17:43:59.261Z,2.59
2023-03-31T17:46:25.688Z,2.72
2023-03-31T17:48:52.111Z,3.27
2023-03-31T17:51:18.466Z,3.22
2023-03-31T17:53:45.334Z,3.53
2023-03-31T17:56:11.928Z,3.54
2023-03-31T17:58:38.274Z,3.42
2023-03-31T18:01:04.594Z,3.53
2023-03-31T18:03:30.933Z,3.52
2023-03-31T18:05:57.425Z,3.66
2023-03-31T18:08:23.788Z,3.56
2023-03-31T18:10:50.202Z,3.65
2023-03-31T18:13:16.531Z,4.16
2023-03-31T18:15:43.090Z,4.14
2023-03-31T18:18:09.540Z,4.05
2023-03-31T18:20:36.152Z,3.97
2023-03-31T18:23:02.668Z,4.27
2023-03-31T18:25:29.078Z,4.34
2023-03-31T18:27:55.573Z,4.33
2023-03-31T18:30:22.073Z,4.26
2023-03-31T18:32:48.532Z,3.97
2023-03-31T18:35:16.479Z,4.19
2023-03-31T18:37:43.264Z,4.31
2023-03-31T18:40:09.597Z,4.07
2023-03-31T18:42:35.928Z,4.11
2023-03-31T18:45:02.244Z,4.08
2023-03-31T18:47:28.676Z,4.36
2023-03-31T18:49:55.034Z,4.26
2023-03-31T18:52:21.408Z,4.46
2023-03-31T18:54:47.776Z,4.40
2023-03-31T18:57:14.179Z,4.55
2023-03-31T18:59:40.555Z,3.98
2023-03-31T19:02:06.970Z,3.86
2023-03-31T19:04:33.451Z,3.70
2023-03-31T19:06:59.827Z,3.97
2023-03-31T19:09:26.218Z,4.18
2023-03-31T19:11:52.570Z,3.80
2023-03-31T19:14:18.927Z,3.85
2023-03-31T19:16:45.372Z,3.99
2023-03-31T19:19:11.742Z,4.04
2023-03-31T19:21:38.127Z,3.82
2023-03-31T19:24:04.516Z,4.10
2023-03-31T19:26:30.850Z,3.86
2023-03-31T19:28:57.221Z,3.80
2023-03-31T19:31:23.707Z,3.79
2023-03-31T19:33:50.135Z,3.72
2023-03-31T19:36:16.653Z,3.76
2023-03-31T19:38:43.028Z,3.44
2023-03-31T19:41:09.498Z,3.56
2023-03-31T19:43:35.977Z,3.49
2023-03-31T19:46:02.388Z,4.59
2023-03-31T19:48:28.890Z,6.29
2023-03-31T19:50:55.236Z,9.18
2023-03-31T19:53:21.632Z,9.96
2023-03-31T19:55:48.017Z,8.48
2023-03-31T19:58:14.573Z,7.60
2023-03-31T20:00:41.149Z,6.78
2023-03-31T20:03:07.762Z,6.56
2023-03-31T20:05:34.321Z,6.47
2023-03-31T20:08:00.667Z,5.95
2023-03-31T20:10:27.062Z,5.95
2023-03-31T20:12:53.410Z,5.75
2023-03-31T20:15:19.770Z,5.43
2023-03-31T20:17:46.183Z,5.26
2023-03-31T20:20:12.543Z,5.12
2023-03-31T20:22:38.929Z,5.03
2023-03-31T20:25:05.278Z,4.86
2023-03-31T20:27:31.647Z,4.75
2023-03-31T20:29:58.101Z,4.67
2023-03-31T20:32:24.477Z,4.50
2023-03-31T20:34:50.824Z,4.28
2023-03-31T20:37:17.159Z,4.28
2023-03-31T20:39:43.876Z,4.27
2023-03-31T20:42:10.471Z,4.16
2023-03-31T20:44:36.809Z,4.09
2023-03-31T20:47:03.376Z,4.08
2023-03-31T20:49:29.918Z,4.04
2023-03-31T20:51:56.282Z,4.22
2023-03-31T20:54:22.625Z,3.90
2023-03-31T20:56:49.101Z,3.81
2023-03-31T20:59:15.621Z,3.72
2023-03-31T21:01:41.999Z,3.68
2023-03-31T21:04:08.565Z,3.83
2023-03-31T21:06:35.162Z,3.59
2023-03-31T21:09:01.530Z,3.48
2023-03-31T21:11:27.904Z,3.25
2023-03-31T21:13:54.296Z,3.09
2023-03-31T21:16:20.675Z,3.05
2023-03-31T21:18:47.114Z,3.10
2023-03-31T21:21:13.507Z,3.08
2023-03-31T21:23:39.912Z,2.94
2023-03-31T21:26:06.309Z,3.22
2023-03-31T21:28:32.685Z,2.91
2023-03-31T21:30:59.059Z,3.07
2023-03-31T21:33:25.444Z,2.88
2023-03-31T21:35:51.980Z,3.15
2023-03-31T21:38:18.357Z,3.05
2023-03-31T21:40:44.671Z,2.88
2023-03-31T21:43:10.984Z,2.94
2023-03-31T21:45:37.369Z,2.56
2023-03-31T21:48:03.852Z,2.62
2023-03-31T21:50:30.225Z,2.79
2023-03-31T21:52:56.569Z,2.68
2023-03-31T21:55:22.982Z,2.78
2023-03-31T21:57:49.369Z,2.59
2023-03-31T22:00:15.723Z,2.77
2023-03-31T22:02:42.102Z,2.80
2023-03-31T22:05:08.616Z,3.02
2023-03-31T22:07:35.078Z,3.05
2023-03-31T22:10:02.202Z,2.80
2023-03-31T22:12:28.595Z,2.85
2023-03-31T22:14:54.931Z,2.78
2023-03-31T22:17:21.314Z,2.69
2023-03-31T22:19:47.710Z,2.67
2023-03-31T22:22:14.187Z,2.66
2023-03-31T22:24:40.628Z,2.62
2023-03-31T22:27:06.932Z,2.44
2023-03-31T22:29:33.263Z,2.45
2023-03-31T22:31:59.760Z,2.43
2023-03-31T22:34:26.315Z,2.68
2023-03-31T22:36:52.681Z,2.70
2023-03-31T22:39:19.056Z,2.64
2023-03-31T22:41:45.452Z,2.62
2023-03-31T22:44:11.797Z,2.67
2023-03-31T22:46:38.202Z,2.64
2023-03-31T22:49:04.597Z,2.38
2023-03-31T22:51:30.971Z,2.16
2023-03-31T22:53:57.409Z,2.28
2023-03-31T22:56:23.805Z,2.25
2023-03-31T22:58:50.124Z,2.15
2023-03-31T23:01:16.662Z,2.14
2023-03-31T23:03:43.018Z,2.10
2023-03-31T23:06:09.421Z,2.26
2023-03-31T23:08:35.892Z,2.19
2023-03-31T23:11:02.438Z,1.91
2023-03-31T23:13:28.765Z,1.97
2023-03-31T23:15:55.147Z,1.81
2023-03-31T23:18:21.496Z,1.81
2023-03-31T23:20:47.807Z,1.91
2023-03-31T23:23:14.246Z,2.12
2023-03-31T23:25:40.584Z,1.82
2023-03-31T23:28:07.023Z,2.05
2023-03-31T23:30:33.415Z,2.06
2023-03-31T23:32:59.755Z,1.80
2023-03-31T23:35:26.134Z,1.74
2023-03-31T23:37:52.555Z,1.77
2023-03-31T23:40:19.018Z,1.62
2023-03-31T23:42:45.577Z,1.59
2023-03-31T23:45:11.890Z,1.74
2023-03-31T23:47:38.250Z,1.52
2023-03-31T23:50:04.782Z,1.60
2023-03-31T23:52:31.154Z,1.62
2023-03-31T23:54:57.625Z,1.61
2023-03-31T23:57:24.048Z,1.60
2023-03-31T23:59:50.834Z,1.49
